Time;durP1;ratioP1;P1;durP2;ratioP2;P2;SDS_P1;SDS_P2;PMS_P1;PMS_P2;Temp;Humidity;BMP_temperature;BMP_pressure;BME280_temperature;BME280_humidity;BME280_pressure;Samples;Min_cycle;Max_cycle;Signal;HPM_P1;HPM_P2
2023/10/18 00:00:57;;;;;;;25.58;10.27;;;2.80;16.40;;;;;;5038687;28;20064;-73
2023/10/18 00:03:31;;;;;;;26.20;11.38;;;2.70;17.60;;;;;;5020005;28;20578;-73
2023/10/18 00:06:16;;;;;;;35.85;10.95;;;2.70;18.90;;;;;;5038215;28;20504;-73
2023/10/18 00:08:45;;;;;;;22.95;9.52;;;2.70;18.10;;;;;;5030421;28;20053;-73
2023/10/18 00:11:10;;;;;;;27.30;10.23;;;2.70;16.70;;;;;;5043671;28;20170;-73
2023/10/18 00:13:36;;;;;;;43.55;14.48;;;2.70;19.00;;;;;;5043364;28;20137;-73
2023/10/18 00:16:03;;;;;;;31.75;12.32;;;2.70;21.60;;;;;;5026505;28;20041;-73
2023/10/18 00:18:29;;;;;;;26.92;10.38;;;2.70;21.70;;;;;;5044830;28;20171;-73
2023/10/18 00:21:07;;;;;;;22.83;10.43;;;2.70;20.30;;;;;;5052700;28;20132;-73
2023/10/18 00:23:33;;;;;;;27.83;10.07;;;2.70;20.10;;;;;;5020538;28;20109;-73
2023/10/18 00:26:09;;;;;;;22.45;9.65;;;2.60;16.50;;;;;;5056458;28;20048;-73
2023/10/18 00:28:39;;;;;;;22.88;9.10;;;2.60;17.00;;;;;;5040883;28;20491;-73
2023/10/18 00:31:12;;;;;;;22.48;9.40;;;2.60;18.20;;;;;;5040495;28;20781;-73
2023/10/18 00:33:39;;;;;;;19.70;9.07;;;2.50;20.10;;;;;;5028675;28;20037;-73
2023/10/18 00:36:08;;;;;;;19.73;9.45;;;2.50;20.30;;;;;;5042900;28;20047;-73
2023/10/18 00:38:34;;;;;;;21.08;9.80;;;2.40;18.40;;;;;;5054196;28;20538;-73
2023/10/18 00:40:59;;;;;;;22.83;10.13;;;2.40;22.60;;;;;;5041656;28;20110;-73
2023/10/18 00:43:26;;;;;;;23.80;10.75;;;2.40;23.30;;;;;;5062661;28;20041;-73
2023/10/18 00:45:54;;;;;;;32.20;12.88;;;2.40;24.20;;;;;;5036782;28;20143;-73
2023/10/18 00:48:26;;;;;;;26.70;11.27;;;2.40;23.30;;;;;;5023202;28;20105;-73
2023/10/18 00:50:54;;;;;;;23.08;10.85;;;2.40;21.50;;;;;;5048829;28;20044;-73
2023/10/18 00:53:25;;;;;;;23.75;9.77;;;2.30;21.40;;;;;;5039592;28;20071;-73
2023/10/18 00:55:59;;;;;;;18.00;9.23;;;2.30;22.00;;;;;;5045385;28;20123;-73
2023/10/18 00:58:31;;;;;;;16.58;9.50;;;2.30;24.30;;;;;;5042069;28;20046;-73
2023/10/18 01:01:08;;;;;;;22.00;9.27;;;2.20;25.00;;;;;;5038007;28;20133;-73
2023/10/18 01:03:49;;;;;;;22.00;10.25;;;2.20;24.80;;;;;;5034820;28;20048;-73
2023/10/18 01:06:17;;;;;;;24.70;10.30;;;2.20;24.60;;;;;;5032883;28;20040;-73
2023/10/18 01:08:46;;;;;;;17.50;9.35;;;2.10;27.30;;;;;;5045190;28;20063;-73
2023/10/18 01:11:12;;;;;;;21.40;10.45;;;2.20;35.20;;;;;;5045293;28;20095;-73
2023/10/18 01:13:41;;;;;;;22.85;10.35;;;2.20;47.80;;;;;;5041448;28;20033;-73
2023/10/18 01:16:15;;;;;;;22.73;10.68;;;2.30;61.60;;;;;;5048120;28;20045;-73
2023/10/18 01:18:47;;;;;;;21.80;10.93;;;2.40;59.10;;;;;;5042582;28;20048;-73
2023/10/18 01:21:18;;;;;;;20.33;9.52;;;2.40;51.30;;;;;;5039661;28;20033;-73
2023/10/18 01:23:49;;;;;;;20.70;10.60;;;2.30;45.90;;;;;;5023891;28;20043;-73
2023/10/18 01:26:16;;;;;;;25.17;11.20;;;2.30;42.40;;;;;;5022892;28;20049;-73
2023/10/18 01:28:42;;;;;;;24.77;10.48;;;2.30;42.60;;;;;;5038637;28;20060;-73
2023/10/18 01:31:09;;;;;;;24.60;11.75;;;2.30;42.90;;;;;;5038137;28;20025;-73
2023/10/18 01:33:39;;;;;;;23.02;11.70;;;2.30;42.00;;;;;;5043748;28;20273;-73
2023/10/18 01:36:05;;;;;;;29.50;12.70;;;2.30;41.20;;;;;;5044626;28;20037;-73
2023/10/18 01:38:31;;;;;;;29.33;13.40;;;2.30;44.20;;;;;;5026824;28;20068;-73
2023/10/18 01:41:00;;;;;;;27.77;13.55;;;2.30;49.00;;;;;;5035059;28;20452;-73
2023/10/18 01:43:28;;;;;;;30.85;13.05;;;2.40;62.40;;;;;;5019720;28;20403;-73
2023/10/18 01:45:54;;;;;;;24.25;12.27;;;2.40;66.10;;;;;;5038621;28;20499;-73
2023/10/18 01:48:20;;;;;;;24.95;11.98;;;2.40;63.60;;;;;;5059460;28;20124;-73
2023/10/18 01:50:46;;;;;;;27.23;12.10;;;2.40;61.40;;;;;;5045199;28;20563;-73
2023/10/18 01:53:23;;;;;;;27.67;13.00;;;2.40;57.60;;;;;;5040929;28;20066;-73
2023/10/18 01:55:52;;;;;;;27.15;12.93;;;2.30;55.00;;;;;;5011633;28;20454;-73
2023/10/18 01:58:24;;;;;;;31.55;13.02;;;2.30;54.50;;;;;;5040020;28;20049;-73
2023/10/18 02:00:53;;;;;;;27.35;13.32;;;2.30;53.00;;;;;;5051904;28;20041;-73
2023/10/18 02:03:19;;;;;;;29.30;13.13;;;2.30;52.50;;;;;;5043693;28;20075;-73
2023/10/18 02:05:48;;;;;;;25.27;12.45;;;2.30;53.90;;;;;;5032034;28;20123;-73
2023/10/18 02:08:13;;;;;;;26.85;12.77;;;2.30;55.60;;;;;;5036103;28;20045;-73
2023/10/18 02:10:44;;;;;;;29.48;12.82;;;2.30;58.10;;;;;;5055713;28;20405;-73
2023/10/18 02:13:11;;;;;;;28.58;13.70;;;2.30;61.70;;;;;;5029249;28;20045;-73
2023/10/18 02:15:41;;;;;;;33.17;13.70;;;2.30;62.70;;;;;;5045385;28;20049;-73
2023/10/18 02:18:08;;;;;;;27.90;12.63;;;2.30;61.90;;;;;;5051393;28;20064;-73
2023/10/18 02:20:58;;;;;;;32.28;13.30;;;2.30;64.10;;;;;;5032091;28;20517;-73
2023/10/18 02:23:23;;;;;;;27.02;13.00;;;2.30;64.80;;;;;;5047363;28;20148;-73
2023/10/18 02:25:50;;;;;;;28.52;12.90;;;2.30;68.00;;;;;;5045868;28;20617;-73
2023/10/18 02:28:28;;;;;;;28.40;12.55;;;2.30;69.00;;;;;;5027575;28;20084;-73
2023/10/18 02:31:09;;;;;;;30.50;13.70;;;2.30;69.00;;;;;;5042622;28;20041;-73
2023/10/18 02:33:38;;;;;;;26.75;12.75;;;2.20;66.90;;;;;;5061290;28;20053;-73
2023/10/18 02:38:55;;;;;;;29.40;12.75;;;2.30;65.00;;;;;;5058224;28;20114;-73
2023/10/18 02:41:21;;;;;;;32.47;13.65;;;2.20;64.90;;;;;;5046563;28;20055;-73
2023/10/18 02:43:50;;;;;;;27.17;12.70;;;2.20;70.40;;;;;;5044587;28;20037;-73
2023/10/18 02:46:20;;;;;;;28.88;12.45;;;2.20;74.50;;;;;;5053969;28;20052;-73
2023/10/18 02:48:47;;;;;;;27.35;12.70;;;2.30;76.40;;;;;;5041635;28;20892;-73
2023/10/18 02:51:14;;;;;;;33.95;13.13;;;2.30;76.40;;;;;;5043748;28;20034;-73
2023/10/18 02:53:41;;;;;;;26.70;12.40;;;2.20;76.10;;;;;;5010936;28;20057;-73
2023/10/18 02:56:10;;;;;;;27.88;12.02;;;2.20;74.30;;;;;;5035539;28;20044;-73
2023/10/18 02:58:38;;;;;;;26.73;12.40;;;2.20;72.90;;;;;;5027582;28;20048;-73
2023/10/18 03:01:08;;;;;;;33.90;13.40;;;2.20;70.20;;;;;;5057246;28;20040;-73
2023/10/18 03:03:34;;;;;;;26.63;11.80;;;2.10;68.90;;;;;;5022646;28;20052;-73
2023/10/18 03:06:12;;;;;;;24.98;11.93;;;2.10;68.10;;;;;;5049961;28;20045;-73
2023/10/18 03:08:42;;;;;;;29.58;12.13;;;2.10;69.70;;;;;;5033691;28;20045;-73
2023/10/18 03:11:11;;;;;;;28.27;12.13;;;2.10;76.50;;;;;;5037756;28;20045;-73
2023/10/18 03:13:37;;;;;;;28.02;13.43;;;2.10;84.10;;;;;;5056762;28;20462;-73
2023/10/18 03:16:05;;;;;;;29.48;13.05;;;2.20;90.00;;;;;;5048855;28;20068;-73
2023/10/18 03:18:31;;;;;;;31.42;13.93;;;2.30;91.90;;;;;;5049335;28;20080;-73
2023/10/18 03:20:57;;;;;;;31.38;14.55;;;2.40;93.90;;;;;;5040114;28;20657;-73
2023/10/18 03:23:26;;;;;;;31.85;14.32;;;2.30;94.30;;;;;;5040221;28;20069;-73
2023/10/18 03:25:59;;;;;;;29.30;14.48;;;2.40;93.00;;;;;;5052782;28;20123;-73
2023/10/18 03:28:34;;;;;;;27.33;13.60;;;2.40;90.00;;;;;;5047929;28;20045;-73
2023/10/18 03:31:00;;;;;;;29.00;13.43;;;2.30;84.30;;;;;;5045810;28;20045;-73
2023/10/18 03:33:28;;;;;;;26.98;12.98;;;2.20;81.20;;;;;;5051361;28;20483;-73
2023/10/18 03:36:17;;;;;;;28.70;13.05;;;2.20;78.90;;;;;;5033483;28;20037;-73
2023/10/18 03:38:46;;;;;;;26.42;12.85;;;2.20;80.80;;;;;;5028276;28;20040;-73
2023/10/18 03:41:17;;;;;;;28.25;13.25;;;2.20;88.40;;;;;;5047225;28;20045;-73
2023/10/18 03:43:42;;;;;;;32.63;14.55;;;2.30;91.00;;;;;;5055256;28;20037;-73
2023/10/18 03:46:18;;;;;;;30.95;14.20;;;2.20;90.50;;;;;;5045568;28;20040;-73
2023/10/18 03:48:47;;;;;;;30.50;14.15;;;2.20;86.80;;;;;;5041043;28;20459;-73
2023/10/18 03:51:23;;;;;;;29.17;13.85;;;2.20;82.80;;;;;;5043374;28;20037;-73
2023/10/18 03:53:53;;;;;;;31.83;15.18;;;2.20;81.50;;;;;;5048025;28;20095;-73
2023/10/18 03:56:22;;;;;;;28.23;14.30;;;2.20;83.20;;;;;;5031406;28;20091;-73
2023/10/18 03:58:49;;;;;;;31.25;14.65;;;2.20;88.30;;;;;;5045019;28;20072;-73
2023/10/18 04:01:21;;;;;;;31.23;14.02;;;2.20;90.40;;;;;;5042451;28;20045;-73
2023/10/18 04:03:49;;;;;;;31.40;13.93;;;2.10;90.10;;;;;;5046732;28;20119;-73
2023/10/18 04:06:23;;;;;;;31.20;13.95;;;2.20;90.40;;;;;;5025640;28;20036;-73
2023/10/18 04:08:49;;;;;;;32.03;13.65;;;2.10;89.90;;;;;;5029362;28;20661;-73
2023/10/18 04:11:14;;;;;;;29.55;15.60;;;2.10;87.90;;;;;;5041320;28;20120;-73
2023/10/18 04:13:41;;;;;;;28.92;13.95;;;2.10;87.50;;;;;;5034326;28;20561;-73
2023/10/18 04:16:11;;;;;;;30.63;14.25;;;2.10;90.00;;;;;;5043047;28;20041;-73
2023/10/18 04:18:42;;;;;;;32.35;14.57;;;2.10;90.40;;;;;;5025918;28;20747;-73
2023/10/18 04:21:14;;;;;;;27.95;15.45;;;2.20;91.00;;;;;;5015144;28;20072;-73
2023/10/18 04:23:45;;;;;;;32.38;15.82;;;2.10;94.30;;;;;;5038028;28;20049;-72
2023/10/18 04:26:18;;;;;;;31.63;15.48;;;2.20;98.20;;;;;;5039985;28;20033;-73
2023/10/18 04:28:45;;;;;;;31.98;14.80;;;2.20;99.30;;;;;;5029619;28;20037;-73
2023/10/18 04:31:12;;;;;;;30.15;15.93;;;2.30;98.40;;;;;;5033006;28;20124;-72
2023/10/18 04:33:41;;;;;;;33.25;14.52;;;2.30;97.80;;;;;;5039277;28;20183;-73
2023/10/18 04:36:12;;;;;;;32.15;15.85;;;2.20;98.40;;;;;;5043325;28;20037;-73
2023/10/18 04:38:43;;;;;;;33.75;15.75;;;2.30;97.70;;;;;;5032270;28;20514;-73
2023/10/18 04:41:10;;;;;;;25.20;14.05;;;2.20;96.80;;;;;;5041820;28;20029;-73
2023/10/18 04:43:37;;;;;;;30.25;15.40;;;2.20;97.30;;;;;;5035176;28;20041;-73
2023/10/18 04:54:08;;;;;;;30.67;14.43;;;2.20;98.50;;;;;;5046728;28;20147;-73
2023/10/18 04:56:37;;;;;;;35.03;15.80;;;2.20;98.80;;;;;;5040970;28;20084;-73
2023/10/18 05:01:56;;;;;;;40.95;16.13;;;2.20;99.80;;;;;;5033172;28;20055;-73
2023/10/18 05:06:56;;;;;;;36.30;16.85;;;2.30;99.90;;;;;;5036618;28;20052;-73
2023/10/18 05:09:35;;;;;;;31.95;16.20;;;2.30;99.90;;;;;;5027206;28;20037;-72
2023/10/18 05:12:16;;;;;;;36.75;16.58;;;2.30;99.90;;;;;;5034679;28;20049;-73
2023/10/18 05:14:42;;;;;;;33.97;16.60;;;2.20;99.90;;;;;;5049987;28;20114;-73
2023/10/18 05:17:17;;;;;;;34.25;16.60;;;2.30;99.90;;;;;;5057911;28;20111;-72
2023/10/18 05:19:44;;;;;;;36.03;16.30;;;2.30;99.90;;;;;;5021916;28;20045;-72
2023/10/18 05:22:23;;;;;;;34.70;16.67;;;2.40;99.90;;;;;;5029157;28;20045;-72
2023/10/18 05:25:11;;;;;;;39.90;17.33;;;2.40;99.90;;;;;;5055459;28;20475;-72
2023/10/18 05:27:45;;;;;;;38.55;17.95;;;2.50;99.90;;;;;;5054663;28;20090;-72
2023/10/18 05:30:15;;;;;;;38.70;15.85;;;2.40;99.90;;;;;;5025448;28;20388;-73
2023/10/18 05:33:03;;;;;;;36.13;17.33;;;2.40;99.90;;;;;;5027315;28;20527;-72
2023/10/18 05:35:34;;;;;;;32.50;17.13;;;2.40;99.90;;;;;;5025177;28;20458;-72
2023/10/18 05:38:06;;;;;;;35.78;17.50;;;2.40;99.90;;;;;;5035727;28;20040;-72
2023/10/18 05:43:07;;;;;;;37.90;17.50;;;2.50;99.90;;;;;;5050832;28;20055;-72
2023/10/18 05:45:33;;;;;;;33.67;16.70;;;2.60;99.90;;;;;;5020102;28;20044;-73
2023/10/18 05:48:17;;;;;;;37.58;18.88;;;2.60;99.90;;;;;;5039707;28;20491;-72
2023/10/18 05:51:25;;;;;;;36.85;17.00;;;2.70;99.90;;;;;;5051498;28;20037;-72
2023/10/18 05:53:30;;;;;;;39.80;18.38;;;2.80;99.90;;;;;;5038271;28;20061;-72
2023/10/18 05:55:56;;;;;;;41.75;18.08;;;2.80;99.90;;;;;;5042785;28;20158;-72
2023/10/18 05:58:28;;;;;;;38.88;18.75;;;2.80;99.90;;;;;;5025705;28;20513;-72
2023/10/18 06:00:57;;;;;;;38.58;17.95;;;2.90;99.90;;;;;;5036265;28;20516;-72
2023/10/18 06:03:25;;;;;;;37.10;17.55;;;2.90;99.90;;;;;;5051859;28;20059;-72
2023/10/18 06:05:53;;;;;;;36.97;18.33;;;3.00;99.90;;;;;;5045043;28;20033;-72
2023/10/18 06:08:22;;;;;;;41.30;19.50;;;3.00;99.90;;;;;;5039533;28;20136;-72
2023/10/18 06:10:53;;;;;;;37.53;18.63;;;2.90;99.90;;;;;;5020162;28;20048;-72
2023/10/18 06:13:22;;;;;;;38.33;19.02;;;3.00;99.90;;;;;;5043995;28;20120;-72
2023/10/18 06:15:51;;;;;;;36.65;17.88;;;3.00;99.90;;;;;;5025574;28;20036;-73
2023/10/18 06:18:22;;;;;;;39.17;17.27;;;2.90;99.90;;;;;;5020792;28;20033;-72
2023/10/18 06:20:52;;;;;;;33.92;17.73;;;3.00;99.90;;;;;;5039784;28;20075;-73
2023/10/18 06:25:49;;;;;;;37.83;18.55;;;3.00;99.90;;;;;;5034532;28;20053;-73
2023/10/18 06:28:21;;;;;;;38.60;18.30;;;3.00;99.90;;;;;;5051181;28;20101;-73
2023/10/18 06:30:56;;;;;;;38.42;17.30;;;3.10;99.90;;;;;;5025162;28;20044;-73
2023/10/18 06:33:22;;;;;;;36.25;17.70;;;3.10;99.90;;;;;;5018231;28;20716;-73
2023/10/18 06:35:52;;;;;;;34.60;17.25;;;3.10;99.90;;;;;;5040788;28;20118;-73
2023/10/18 06:38:22;;;;;;;31.50;17.00;;;3.20;99.90;;;;;;5054494;28;20032;-73
2023/10/18 06:43:25;;;;;;;33.95;16.85;;;3.30;99.90;;;;;;5039301;28;20344;-73
2023/10/18 06:45:53;;;;;;;33.42;17.70;;;3.40;99.90;;;;;;5039459;28;20457;-73
2023/10/18 06:48:19;;;;;;;35.50;18.20;;;3.50;99.90;;;;;;5029006;28;20043;-73
2023/10/18 06:50:48;;;;;;;34.28;17.27;;;3.50;99.90;;;;;;5037094;28;20071;-72
2023/10/18 06:53:17;;;;;;;33.83;18.10;;;3.60;99.90;;;;;;5022737;28;20385;-73
2023/10/18 06:55:55;;;;;;;36.78;17.45;;;3.70;99.90;;;;;;5039899;28;20543;-73
2023/10/18 07:01:00;;;;;;;39.67;18.75;;;3.80;99.90;;;;;;5043687;28;20033;-72
2023/10/18 07:03:29;;;;;;;42.10;17.42;;;3.80;99.90;;;;;;5036201;28;20056;-72
2023/10/18 07:06:04;;;;;;;35.67;17.95;;;3.80;99.90;;;;;;5042030;28;20120;-72
2023/10/18 07:08:32;;;;;;;35.00;17.98;;;3.90;99.90;;;;;;5038789;28;20051;-71
2023/10/18 07:11:01;;;;;;;36.42;17.95;;;4.00;99.90;;;;;;5027765;28;20539;-72
2023/10/18 07:13:34;;;;;;;35.42;17.13;;;4.10;99.90;;;;;;5035760;28;20042;-72
2023/10/18 07:16:18;;;;;;;30.48;16.88;;;4.10;99.90;;;;;;5043710;28;20094;-72
2023/10/18 07:18:44;;;;;;;37.50;17.75;;;4.20;99.90;;;;;;5036603;28;20037;-71
2023/10/18 07:21:11;;;;;;;34.58;17.08;;;4.30;99.90;;;;;;5040916;28;20581;-73
2023/10/18 07:23:37;;;;;;;37.38;16.75;;;4.40;99.90;;;;;;5026194;28;20049;-73
2023/10/18 07:26:07;;;;;;;34.08;17.02;;;4.40;99.90;;;;;;5031514;28;20394;-73
2023/10/18 07:28:36;;;;;;;31.35;16.33;;;4.50;99.90;;;;;;5041543;28;20037;-73
2023/10/18 07:31:10;;;;;;;30.02;15.98;;;4.60;99.90;;;;;;5042104;28;20040;-73
2023/10/18 07:33:43;;;;;;;32.30;16.65;;;4.70;99.90;;;;;;5037218;28;20057;-72
2023/10/18 07:36:17;;;;;;;32.88;16.80;;;4.80;99.90;;;;;;5040877;28;20056;-73
2023/10/18 07:38:47;;;;;;;39.65;19.10;;;4.80;99.90;;;;;;5054112;28;20048;-73
2023/10/18 07:41:14;;;;;;;34.80;17.15;;;4.90;99.90;;;;;;5038763;28;20044;-73
2023/10/18 07:43:43;;;;;;;31.10;15.93;;;5.00;99.90;;;;;;5037539;28;20533;-73
2023/10/18 07:46:09;;;;;;;32.20;16.38;;;5.10;99.90;;;;;;5040626;28;20186;-73
2023/10/18 07:48:38;;;;;;;36.47;18.00;;;5.10;99.90;;;;;;5064536;28;20044;-73
2023/10/18 07:51:23;;;;;;;27.80;15.27;;;5.20;99.90;;;;;;5047203;28;20041;-73
2023/10/18 07:53:55;;;;;;;30.92;15.48;;;5.30;99.90;;;;;;5038759;28;20060;-73
2023/10/18 07:56:27;;;;;;;32.72;16.58;;;5.40;99.90;;;;;;5046185;28;20730;-73
2023/10/18 07:58:53;;;;;;;29.83;14.48;;;5.50;99.90;;;;;;5046558;28;20076;-73
2023/10/18 08:04:22;;;;;;;32.95;14.88;;;5.70;99.90;;;;;;5017342;28;20485;-73
2023/10/18 08:06:50;;;;;;;34.20;14.65;;;5.70;99.90;;;;;;5045265;28;20059;-73
2023/10/18 08:09:28;;;;;;;26.85;13.82;;;5.80;99.90;;;;;;5045449;28;20483;-73
2023/10/18 08:11:54;;;;;;;26.35;13.30;;;5.90;99.90;;;;;;5041851;28;20048;-73
2023/10/18 08:14:24;;;;;;;25.45;12.93;;;6.00;99.90;;;;;;5036852;28;20551;-73
2023/10/18 08:16:57;;;;;;;25.50;13.15;;;6.10;99.90;;;;;;5036576;28;20072;-73
2023/10/18 08:19:24;;;;;;;26.20;12.85;;;6.10;99.90;;;;;;5060423;28;20043;-73
2023/10/18 08:22:21;;;;;;;23.27;12.35;;;6.20;99.90;;;;;;5019412;28;20045;-73
2023/10/18 08:24:49;;;;;;;23.13;12.68;;;6.30;99.90;;;;;;5048387;28;20052;-73
2023/10/18 08:27:15;;;;;;;22.15;12.48;;;6.40;99.90;;;;;;5048345;28;20407;-74
2023/10/18 08:29:41;;;;;;;32.50;12.45;;;6.50;99.90;;;;;;5031684;28;20663;-73
2023/10/18 08:32:17;;;;;;;25.88;12.88;;;6.60;99.90;;;;;;5026263;28;20049;-73
2023/10/18 08:34:45;;;;;;;25.48;12.48;;;6.70;99.90;;;;;;5043195;28;20040;-73
2023/10/18 08:37:13;;;;;;;24.05;12.32;;;6.70;99.90;;;;;;5048715;28;20396;-74
2023/10/18 08:39:55;;;;;;;21.33;11.80;;;6.80;99.90;;;;;;5018629;28;20145;-74
2023/10/18 08:42:30;;;;;;;24.83;12.52;;;6.90;99.90;;;;;;5047432;28;20048;-73
2023/10/18 08:44:56;;;;;;;26.08;12.60;;;7.00;99.90;;;;;;5046417;28;20040;-74
2023/10/18 08:47:26;;;;;;;21.08;11.48;;;7.10;99.90;;;;;;5030799;28;20045;-73
2023/10/18 08:49:55;;;;;;;20.48;12.07;;;7.10;99.90;;;;;;5029934;28;20048;-74
2023/10/18 08:52:24;;;;;;;22.02;11.40;;;7.30;99.90;;;;;;5021298;28;20504;-73
2023/10/18 08:54:51;;;;;;;20.02;11.95;;;7.30;99.90;;;;;;5025483;28;20033;-74
2023/10/18 08:57:38;;;;;;;26.25;12.32;;;7.40;99.90;;;;;;5031796;28;20578;-74
2023/10/18 09:02:50;;;;;;;20.38;11.48;;;7.40;99.90;;;;;;5061014;28;20041;-74
2023/10/18 09:05:19;;;;;;;20.95;12.07;;;7.60;99.90;;;;;;5044762;28;20655;-74
2023/10/18 09:07:45;;;;;;;20.85;10.93;;;7.70;99.90;;;;;;5031469;28;20126;-74
2023/10/18 09:10:57;;;;;;;23.80;12.27;;;7.70;99.90;;;;;;5047744;28;20076;-74
2023/10/18 09:15:36;;;;;;;19.08;10.18;;;7.90;99.90;;;;;;5028568;28;20052;-74
2023/10/18 09:18:05;;;;;;;23.65;12.02;;;8.00;99.90;;;;;;5044858;28;20033;-74
2023/10/18 09:20:31;;;;;;;18.10;11.48;;;8.10;99.90;;;;;;5011967;28;20064;-74
2023/10/18 09:23:04;;;;;;;15.88;10.02;;;8.20;99.90;;;;;;5059536;28;20241;-74
2023/10/18 09:25:47;;;;;;;17.50;11.25;;;8.30;99.90;;;;;;5047761;28;20055;-74
2023/10/18 09:28:28;;;;;;;19.08;11.00;;;8.40;99.90;;;;;;5047323;28;20613;-74
2023/10/18 09:31:03;;;;;;;18.85;10.68;;;8.40;99.90;;;;;;5046991;28;20140;-74
2023/10/18 09:33:33;;;;;;;19.20;10.02;;;8.50;99.90;;;;;;5047533;28;20047;-74
2023/10/18 09:36:01;;;;;;;21.17;10.50;;;8.60;99.90;;;;;;5046375;28;20048;-74
2023/10/18 09:38:41;;;;;;;16.13;10.00;;;8.70;99.90;;;;;;5047452;28;20047;-74
2023/10/18 09:41:07;;;;;;;18.30;10.85;;;8.80;99.90;;;;;;5046657;28;20056;-74
2023/10/18 09:43:34;;;;;;;22.33;12.45;;;9.00;99.90;;;;;;5047044;28;20106;-74
2023/10/18 09:46:00;;;;;;;16.40;9.35;;;9.10;99.90;;;;;;5011732;28;20053;-74
2023/10/18 09:48:31;;;;;;;16.50;9.55;;;9.10;99.90;;;;;;5045280;28;20045;-74
2023/10/18 09:51:06;;;;;;;18.98;10.52;;;9.20;98.30;;;;;;5047100;28;20613;-75
2023/10/18 09:53:48;;;;;;;15.93;9.02;;;9.30;89.10;;;;;;5033786;28;20131;-74
2023/10/18 09:56:16;;;;;;;15.40;8.90;;;9.30;72.10;;;;;;5045196;28;20532;-74
2023/10/18 09:58:44;;;;;;;18.65;10.25;;;9.40;59.80;;;;;;5046925;28;20479;-74
2023/10/18 10:01:16;;;;;;;18.75;9.77;;;9.50;43.90;;;;;;5046327;28;20110;-74
2023/10/18 10:03:52;;;;;;;15.98;8.80;;;9.60;27.90;;;;;;5030458;28;20522;-74
2023/10/18 10:06:20;;;;;;;13.50;7.97;;;9.60;41.30;;;;;;5038893;28;20041;-74
2023/10/18 10:08:51;;;;;;;13.63;7.97;;;9.80;27.00;;;;;;5063549;28;20399;-74
2023/10/18 10:11:19;;;;;;;15.50;8.27;;;9.80;6.50;;;;;;5029848;28;20055;-74
2023/10/18 10:13:49;;;;;;;15.25;9.07;;;9.90;1.00;;;;;;5040499;28;20083;-74
2023/10/18 10:16:18;;;;;;;14.18;7.82;;;10.00;1.00;;;;;;5043824;28;20045;-74
2023/10/18 10:18:47;;;;;;;12.93;7.53;;;10.00;1.00;;;;;;5044182;28;20038;-74
2023/10/18 10:21:16;;;;;;;15.50;8.15;;;10.00;1.00;;;;;;5024329;28;20052;-74
2023/10/18 10:23:42;;;;;;;12.55;7.85;;;10.20;1.00;;;;;;5046868;28;20052;-73
2023/10/18 10:26:16;;;;;;;12.65;6.90;;;10.30;1.00;;;;;;5029355;28;20075;-74
2023/10/18 10:31:26;;;;;;;12.60;7.72;;;10.50;1.00;;;;;;5045929;28;20231;-74
2023/10/18 10:34:07;;;;;;;12.77;8.23;;;10.60;1.00;;;;;;5029844;28;20123;-74
2023/10/18 10:36:35;;;;;;;13.32;7.35;;;10.70;1.00;;;;;;5050708;28;20535;-74
2023/10/18 10:39:02;;;;;;;11.90;7.65;;;10.80;1.00;;;;;;5045389;28;20041;-74
2023/10/18 10:41:31;;;;;;;12.98;7.70;;;10.90;99.90;;;;;;5046294;28;20037;-74
2023/10/18 10:44:21;;;;;;;12.93;7.70;;;11.00;99.90;;;;;;5045053;28;20090;-73
2023/10/18 10:46:50;;;;;;;10.75;6.93;;;11.10;99.90;;;;;;5045478;28;20045;-74
2023/10/18 10:49:58;;;;;;;11.82;7.55;;;11.20;99.90;;;;;;5041351;28;20381;-74
2023/10/18 10:52:29;;;;;;;;;;;11.40;99.90;;;;;;5038700;28;20140;-74
2023/10/18 10:55:18;;;;;;;12.80;7.53;;;11.50;78.90;;;;;;5045813;28;20301;-75
2023/10/18 10:57:46;;;;;;;11.05;6.60;;;11.60;98.60;;;;;;5040014;28;20396;-74
2023/10/18 11:03:06;;;;;;;13.65;7.03;;;11.70;99.90;;;;;;5038303;28;20109;-74
2023/10/18 11:05:39;;;;;;;13.80;7.38;;;11.90;99.90;;;;;;5037036;28;20063;-74
2023/10/18 11:08:05;;;;;;;10.93;7.03;;;11.90;59.90;;;;;;5033670;28;20041;-74
2023/10/18 11:10:39;;;;;;;10.63;6.60;;;12.00;10.10;;;;;;5040040;28;20038;-74
2023/10/18 11:13:06;;;;;;;10.35;7.03;;;12.00;1.00;;;;;;5024017;28;20045;-74
2023/10/18 11:15:36;;;;;;;13.25;7.07;;;12.10;1.00;;;;;;5051173;28;20072;-74
2023/10/18 11:18:20;;;;;;;12.63;6.25;;;12.20;1.00;;;;;;5033879;28;20109;-74
2023/10/18 11:21:11;;;;;;;11.75;6.63;;;12.20;1.00;;;;;;5034785;28;20083;-74
2023/10/18 11:23:37;;;;;;;9.70;6.45;;;12.20;1.00;;;;;;5041874;28;20052;-74
2023/10/18 11:26:09;;;;;;;11.45;6.07;;;12.20;1.00;;;;;;5044325;28;20045;-74
2023/10/18 11:28:37;;;;;;;12.05;5.85;;;12.20;1.00;;;;;;5014975;28;20096;-74
2023/10/18 11:31:04;;;;;;;12.02;6.60;;;12.30;1.00;;;;;;5027323;28;20487;-74
2023/10/18 11:33:47;;;;;;;10.35;6.25;;;12.30;1.00;;;;;;5022820;28;20041;-74
2023/10/18 11:36:18;;;;;;;10.00;6.72;;;12.40;99.90;;;;;;5032653;28;20041;-74
2023/10/18 11:39:07;;;;;;;8.13;5.57;;;12.40;99.90;;;;;;5037139;28;20500;-74
2023/10/18 11:41:35;;;;;;;8.35;5.65;;;12.50;99.90;;;;;;5039390;28;20230;-74
2023/10/18 11:44:08;;;;;;;10.48;5.43;;;12.60;99.90;;;;;;5029787;28;20099;-74
2023/10/18 11:46:50;;;;;;;9.20;5.90;;;12.60;99.90;;;;;;5023413;28;20052;-73
2023/10/18 11:49:20;;;;;;;11.48;5.93;;;12.60;99.90;;;;;;5021333;28;20133;-74
2023/10/18 11:51:51;;;;;;;8.80;5.63;;;12.70;99.90;;;;;;5031363;28;20095;-74
2023/10/18 11:54:36;;;;;;;9.82;5.60;;;12.70;99.90;;;;;;5049037;28;20060;-74
2023/10/18 11:57:06;;;;;;;8.32;5.07;;;12.90;99.90;;;;;;5030388;28;20033;-74
2023/10/18 11:59:51;;;;;;;10.43;5.60;;;12.90;99.90;;;;;;5032875;28;20612;-74
2023/10/18 12:02:16;;;;;;;8.93;5.25;;;13.00;99.90;;;;;;5037394;28;20041;-74
2023/10/18 12:04:44;;;;;;;9.35;5.93;;;13.00;99.90;;;;;;5048766;28;20041;-74
2023/10/18 12:07:13;;;;;;;10.23;6.10;;;13.00;99.90;;;;;;5032280;28;20072;-74
2023/10/18 12:09:43;;;;;;;9.93;5.85;;;13.10;99.90;;;;;;5037554;28;20629;-74
2023/10/18 12:12:13;;;;;;;8.13;5.20;;;13.10;99.90;;;;;;5035672;28;20116;-75
2023/10/18 12:14:42;;;;;;;9.52;6.22;;;13.10;99.90;;;;;;5049376;28;20072;-74
2023/10/18 12:17:10;;;;;;;9.13;5.55;;;13.00;99.90;;;;;;5048961;28;20407;-74
2023/10/18 12:19:37;;;;;;;8.93;5.30;;;13.10;99.90;;;;;;5049109;28;20049;-74
2023/10/18 12:22:04;;;;;;;8.13;5.35;;;13.00;99.90;;;;;;5061855;28;20045;-74
2023/10/18 12:24:33;;;;;;;8.95;5.18;;;13.00;99.90;;;;;;5039677;28;20371;-74
2023/10/18 12:29:47;;;;;;;10.52;5.40;;;13.00;99.90;;;;;;5034683;28;20049;-74
2023/10/18 12:32:30;;;;;;;9.48;5.00;;;13.00;99.90;;;;;;5036075;28;20124;-74
2023/10/18 12:34:57;;;;;;;8.88;4.97;;;13.00;99.90;;;;;;5032236;28;20458;-74
2023/10/18 12:37:32;;;;;;;8.95;4.95;;;13.10;99.90;;;;;;5022407;28;20041;-75
2023/10/18 12:39:59;;;;;;;8.57;5.45;;;13.10;99.90;;;;;;5018575;28;20071;-74
2023/10/18 12:42:25;;;;;;;8.93;5.20;;;13.10;97.90;;;;;;5048497;28;20041;-74
2023/10/18 12:44:59;;;;;;;8.10;4.95;;;13.00;91.50;;;;;;5031745;28;20499;-74
2023/10/18 12:47:28;;;;;;;9.45;5.38;;;13.00;92.40;;;;;;5031936;28;20037;-74
2023/10/18 12:49:56;;;;;;;9.55;5.55;;;12.90;79.40;;;;;;5044939;28;20041;-74
2023/10/18 12:55:29;;;;;;;7.80;5.00;;;12.90;70.70;;;;;;5041869;28;20045;-74
2023/10/18 12:57:49;;;;;;;10.45;5.60;;;12.90;81.20;;;;;;5040962;28;21328;-74
2023/10/18 13:00:18;;;;;;;8.80;5.07;;;12.90;79.90;;;;;;5021040;28;20036;-74
2023/10/18 13:03:33;;;;;;;9.57;5.43;;;12.90;68.20;;;;;;5029690;28;20804;-74
2023/10/18 13:05:43;;;;;;;8.70;5.13;;;12.90;63.10;;;;;;5043656;28;20040;-74
2023/10/18 13:08:16;;;;;;;8.93;5.30;;;12.90;57.20;;;;;;5031475;28;20123;-74
2023/10/18 13:10:48;;;;;;;11.30;5.50;;;12.90;70.40;;;;;;5018833;28;20052;-74
2023/10/18 13:13:16;;;;;;;11.05;5.50;;;12.90;65.20;;;;;;5033500;28;20045;-74
2023/10/18 13:15:46;;;;;;;8.90;5.13;;;13.00;56.30;;;;;;5020753;28;20037;-74
2023/10/18 13:18:14;;;;;;;12.45;5.10;;;13.00;48.10;;;;;;5028312;28;20124;-74
2023/10/18 13:20:45;;;;;;;11.32;6.10;;;13.00;41.40;;;;;;5028580;28;20545;-74
2023/10/18 13:23:12;;;;;;;10.38;5.57;;;13.00;27.10;;;;;;5027948;28;20049;-74
2023/10/18 13:25:49;;;;;;;10.07;5.53;;;13.00;29.70;;;;;;5022231;28;20552;-74
2023/10/18 13:28:33;;;;;;;11.80;5.10;;;13.00;31.70;;;;;;5030586;28;20045;-74
2023/10/18 13:31:04;;;;;;;11.27;5.20;;;13.10;41.70;;;;;;5047070;28;20037;-74
2023/10/18 13:33:33;;;;;;;10.40;4.90;;;13.20;33.20;;;;;;5047452;28;20053;-74
2023/10/18 13:36:01;;;;;;;12.60;5.90;;;13.30;43.40;;;;;;5047310;28;20547;-74
2023/10/18 13:38:28;;;;;;;9.23;4.72;;;13.40;27.40;;;;;;5031108;28;20037;-74
2023/10/18 13:40:54;;;;;;;7.88;5.22;;;13.50;20.20;;;;;;5047183;28;20037;-74
2023/10/18 13:43:19;;;;;;;9.65;4.70;;;13.60;18.30;;;;;;5047028;28;20496;-74
2023/10/18 13:45:46;;;;;;;11.63;5.55;;;13.60;21.50;;;;;;5045949;28;20045;-74